Decoded Metar for ZUCK (CHONGQING in CHINA) (IATA:CKG) | Meteo·Mobile Aviation Weather
aviador You're here:

ZUCK Decoded Metar

CHONGQING in CHINA
Report Time2018-11-19 02:00:00
UTC Time2018-11-19 02:57:43
Flight Rules mvfr MVFR
Wind010° at 8 kt
W.Decomp.*RWY 02: 7.9 kt HW 1.3 kt LCW
W.Rank010° ranks 1
Current wind is above 010° avg. (6.6)
Visibility7000 m
Phenomena:N/A
Clouds:Scattered 040 Hf
Expected CloudBase > 800 ft AGL from Temp-Dew spread
CeilingNone
Temp09°C (ISA -4)
Dew Point07°C (87% RH)
AAT5.4°C
QNH1025 hPa
Density Alt443 ft
Elevation1,152 ft
Report Wrong Elevation
Raw Report
ZUCK 190200Z 01004MPS 7000 SCT040 09/07 Q1025 NOSIG=

Extra information for ZUCK:More info

Metar Taf Metar & Taf Last 4 Metars F.Rules Stats Wind Profile Meteogram Temp Stats Airport Information Weather charts Add Link Nearby VenuesMetar ALERT Operation Metar Decoded Social comments